El Paso, TX

4:09 PM MDT on July 23, 2016 (GMT -0600)
Marty Robbins Park (East Side) | | Change Station
Active Advisory: Heat Advisory

Elev 4000 ft 31.75 °N, 106.29 °W | Updated 14 minutes ago

Partly Cloudy
Partly Cloudy
103.7 °F
Feels Like 101 °F
N
1.0
Wind Variable Wind from SW
Gusts 5.0 mph

Today
High -- | Low -- °F
--% Chance of Precip.
Yesterday
High -- | Low -- °F
Precip. -- in
Pressure 29.69 in
Visibility 10.0 miles
Clouds Few 13000 ft
Heat Index 101 °F
Dew Point 51 °F
Humidity 17%
Rainfall 0.00 in
Snow Depth Not available.
6:15 AM 8:07 PM
Waning Gibbous, 82% visible
METAR KELP 232151Z 23003KT 10SM FEW130 39/04 A2995 RMK AO2 SLP053 CB DSNT N NE AND SW T03940044
Pressure 29.69 in
Visibility 10.0 miles
Clouds Few 13000 ft
Heat Index 101 °F
Dew Point 51 °F
Humidity 17%
Rainfall 0.00 in
Snow Depth Not available.
6:15 AM 8:07 PM
Waning Gibbous, 82% visible
METAR KELP 232151Z 23003KT 10SM FEW130 39/04 A2995 RMK AO2 SLP053 CB DSNT N NE AND SW T03940044

10-Day Weather Forecast

Almanac

Astronomy

Jul. 23, 2016 Rise Set
Actual Time
Civil Twilight
Nautical Twilight
Astronomical Twilight
Moon
Length of Visible Light
Length of Day
Tomorrow will be .
, % of the Moon is Illuminated

Today's Extremes

State Highs State Lows

Community

WunderPhotos

Upload Photos

1,926,942 photos uploaded!

WunderBlog® & News

Nearby

Air Quality

  Air Quality AQ Index Pollutant
Not available.

Snow Depth

Station Depth Elevation

Earthquake Activity

City Distance Mag. Time & Date
Minimum magnitude displayed is 2.5.

Coastal Water Temperatures

Place Temperature

Stations

Nearby Weather Stations

Station Location Temp. Windchill Dew Point Humidity Wind Precip. Elev Updated Type
                   

Watches & Warnings

Heat Advisory
Issued: 3:24 PM MDT Jul. 23, 2016 – National Weather Service

... Heat advisory remains in effect until 6 am MDT Sunday...

* temperature... high temperatures will be 104 to 106 degrees in
the El Paso Metro area and Lower Valley today... and overnight
low temperatures through Sunday morning will be 75 to 80
degrees.

* Impacts... the potential for heat related illnesses and
dehydration will be high. Strenuous outside activities will be
hazardous to your health and thus should be avoided. Persons
or pets should not be left in a motor vehicle as this will
cause extreme harm or even death within a short time.

Precautionary/preparedness actions...

A heat advisory means that a period of very hot temperatures is
expected... creating a situation in which heat illnesses are
possible. Drink plenty of fluids... stay in an air-conditioned
room... stay out of the sun... and check up on relatives and
neighbors.